Time;durP1;ratioP1;P1;durP2;ratioP2;P2;SDS_P1;SDS_P2;PMS_P1;PMS_P2;Temp;Humidity;BMP_temperature;BMP_pressure;BME280_temperature;BME280_humidity;BME280_pressure;Samples;Min_cycle;Max_cycle;Signal;HPM_P1;HPM_P2
2023/04/13 00:01:21;;;;;;;;;;;;;;;;;;5116982;27;19966;-71
2023/04/13 00:03:48;;;;;;;;;;;;;;;;;;5116378;28;20027;-72
2023/04/13 00:06:15;;;;;;;;;;;;;;;;;;5116041;28;20026;-71
2023/04/13 00:08:43;;;;;;;;;;;;;;;;;;5116348;28;19930;-71
2023/04/13 00:11:10;;;;;;;;;;;;;;;;;;5116805;28;20355;-71
2023/04/13 00:13:41;;;;;;;;;;;;;;;;;;5116185;28;20390;-71
2023/04/13 00:16:08;;;;;;;;;;;;;;;;;;5116636;27;19969;-72
2023/04/13 00:18:35;;;;;;;;;;;;;;;;;;5115977;28;19924;-71
2023/04/13 00:21:02;;;;;;;;;;;;;;;;;;5121211;27;19930;-72
2023/04/13 00:23:30;;;;;;;;;;;;;;;;;;5127163;27;20054;-71
2023/04/13 00:25:57;;;;;;;;;;;;;;;;;;5115520;28;19924;-71
2023/04/13 00:28:24;;;;;;;;;;;;;;;;;;5129904;27;20014;-72
2023/04/13 00:30:51;;;;;;;;;;;;;;;;;;5136126;27;19930;-71
2023/04/13 00:33:18;;;;;;;;;;;;;;;;;;5132991;27;20447;-72
2023/04/13 00:35:46;;;;;;;;;;;;;;;;;;5115285;28;19930;-73
2023/04/13 00:38:13;;;;;;;;;;;;;;;;;;5114500;28;19928;-72
2023/04/13 00:40:39;;;;;;;;;;;;;;;;;;5130696;27;20022;-71
2023/04/13 00:43:06;;;;;;;;;;;;;;;;;;5136503;27;19930;-72
2023/04/13 00:45:36;;;;;;;;;;;;;;;;;;5136106;27;20014;-72
2023/04/13 00:48:03;;;;;;;;;;;;;;;;;;5136212;27;19931;-71
2023/04/13 00:50:32;;;;;;;;;;;;;;;;;;5134927;27;20002;-71
2023/04/13 00:52:59;;;;;;;;;;;;;;;;;;5135567;27;19923;-72
2023/04/13 00:55:27;;;;;;;;;;;;;;;;;;5135750;27;19930;-72
2023/04/13 00:57:54;;;;;;;;;;;;;;;;;;5135360;27;19930;-71
2023/04/13 01:00:23;;;;;;;;;;;;;;;;;;5135352;27;20421;-71
2023/04/13 01:02:51;;;;;;;;;;;;;;;;;;5135908;27;19924;-71
2023/04/13 01:05:18;;;;;;;;;;;;;;;;;;5136105;27;19930;-72
2023/04/13 01:07:46;;;;;;;;;;;;;;;;;;5129009;27;19924;-71
2023/04/13 01:10:13;;;;;;;;;;;;;;;;;;5115309;28;19927;-72
2023/04/13 01:12:40;;;;;;;;;;;;;;;;;;5115162;28;19924;-72
2023/04/13 01:15:07;;;;;;;;;;;;;;;;;;5114708;28;19924;-72
2023/04/13 01:17:34;;;;;;;;;;;;;;;;;;5114839;28;19923;-71
2023/04/13 01:20:07;;;;;;;;;;;;;;;;;;5132418;27;19930;-71
2023/04/13 01:22:34;;;;;;;;;;;;;;;;;;5135302;27;20364;-72
2023/04/13 01:25:02;;;;;;;;;;;;;;;;;;5134629;27;19930;-72
2023/04/13 01:27:29;;;;;;;;;;;;;;;;;;5135449;27;19930;-71
2023/04/13 01:29:57;;;;;;;;;;;;;;;;;;5135318;27;19930;-71
2023/04/13 01:32:24;;;;;;;;;;;;;;;;;;5134841;27;19923;-72
2023/04/13 01:34:50;;;;;;;;;;;;;;;;;;5134276;27;19923;-72
2023/04/13 01:37:17;;;;;;;;;;;;;;;;;;5135005;27;19929;-69
2023/04/13 01:39:45;;;;;;;;;;;;;;;;;;5134889;27;19950;-72
2023/04/13 01:42:12;;;;;;;;;;;;;;;;;;5134074;27;19923;-72
2023/04/13 01:44:39;;;;;;;;;;;;;;;;;;5134898;27;19977;-72
2023/04/13 01:47:14;;;;;;;;;;;;;;;;;;5134956;27;19930;-69
2023/04/13 01:49:41;;;;;;;;;;;;;;;;;;5134553;27;19923;-69
2023/04/13 01:52:08;;;;;;;;;;;;;;;;;;5134751;27;19923;-71
2023/04/13 01:54:35;;;;;;;;;;;;;;;;;;5134282;27;20018;-72
2023/04/13 01:57:02;;;;;;;;;;;;;;;;;;5134694;27;20274;-72
2023/04/13 01:59:29;;;;;;;;;;;;;;;;;;5120985;27;20394;-72
2023/04/13 02:01:58;;;;;;;;;;;;;;;;;;5113897;28;20394;-72
2023/04/13 02:04:25;;;;;;;;;;;;;;;;;;5113849;28;20431;-72
2023/04/13 02:06:52;;;;;;;;;;;;;;;;;;5113462;28;20309;-72
2023/04/13 02:09:18;;;;;;;;;;;;;;;;;;5113712;28;20319;-71
2023/04/13 02:11:46;;;;;;;;;;;;;;;;;;5113833;28;19924;-71
2023/04/13 02:14:14;;;;;;;;;;;;;;;;;;5113879;28;19923;-72
2023/04/13 02:16:41;;;;;;;;;;;;;;;;;;5127690;27;19924;-72
2023/04/13 02:19:08;;;;;;;;;;;;;;;;;;5133684;27;19928;-72
2023/04/13 02:21:35;;;;;;;;;;;;;;;;;;5134003;27;19931;-72
2023/04/13 02:24:02;;;;;;;;;;;;;;;;;;5134022;27;20323;-71
2023/04/13 02:26:29;;;;;;;;;;;;;;;;;;5134137;27;19927;-72
2023/04/13 02:28:56;;;;;;;;;;;;;;;;;;5134046;27;19930;-71
2023/04/13 02:31:23;;;;;;;;;;;;;;;;;;5133756;27;19923;-72
2023/04/13 02:33:50;;;;;;;;;;;;;;;;;;5132871;27;20019;-71
2023/04/13 02:36:17;;;;;;;;;;;;;;;;;;5134347;27;19929;-71
2023/04/13 02:38:44;;;;;;;;;;;;;;;;;;5133435;27;20439;-72
2023/04/13 02:41:11;;;;;;;;;;;;;;;;;;5133936;27;20356;-72
2023/04/13 02:43:38;;;;;;;;;;;;;;;;;;5133570;27;20400;-72
2023/04/13 02:46:05;;;;;;;;;;;;;;;;;;5133304;27;19933;-72
2023/04/13 02:48:32;;;;;;;;;;;;;;;;;;5133750;27;20441;-72
2023/04/13 02:50:59;;;;;;;;;;;;;;;;;;5116593;28;20381;-73
2023/04/13 02:53:27;;;;;;;;;;;;;;;;;;5113542;28;19924;-72
2023/04/13 02:55:55;;;;;;;;;;;;;;;;;;5112640;28;20377;-72
2023/04/13 02:58:23;;;;;;;;;;;;;;;;;;5113556;28;20022;-72
2023/04/13 03:00:50;;;;;;;;;;;;;;;;;;5113061;28;20441;-72
2023/04/13 03:03:19;;;;;;;;;;;;;;;;;;5112848;28;19924;-72
2023/04/13 03:05:46;;;;;;;;;;;;;;;;;;5112835;28;19923;-72
2023/04/13 03:08:13;;;;;;;;;;;;;;;;;;5113426;28;20013;-72
2023/04/13 03:10:40;;;;;;;;;;;;;;;;;;5113032;28;20340;-72
2023/04/13 03:13:07;;;;;;;;;;;;;;;;;;5113183;28;20328;-72
2023/04/13 03:15:34;;;;;;;;;;;;;;;;;;5116088;28;19924;-72
2023/04/13 03:18:03;;;;;;;;;;;;;;;;;;5133055;28;19930;-71
2023/04/13 03:20:29;;;;;;;;;;;;;;;;;;5133050;28;19930;-71
2023/04/13 03:22:57;;;;;;;;;;;;;;;;;;5133206;28;19923;-71
2023/04/13 03:25:24;;;;;;;;;;;;;;;;;;5133039;28;19923;-72
2023/04/13 03:27:51;;;;;;;;;;;;;;;;;;5133723;28;19929;-71
2023/04/13 03:30:18;;;;;;;;;;;;;;;;;;5133111;28;19949;-72
2023/04/13 03:32:45;;;;;;;;;;;;;;;;;;5133522;28;20370;-72
2023/04/13 03:35:12;;;;;;;;;;;;;;;;;;5133590;27;19924;-71
2023/04/13 03:37:41;;;;;;;;;;;;;;;;;;5133616;28;19924;-71
2023/04/13 03:40:09;;;;;;;;;;;;;;;;;;5131418;28;19923;-72
2023/04/13 03:42:36;;;;;;;;;;;;;;;;;;5112549;28;20023;-71
2023/04/13 03:45:03;;;;;;;;;;;;;;;;;;5112659;28;19924;-72
2023/04/13 03:47:30;;;;;;;;;;;;;;;;;;5112708;28;19924;-71
2023/04/13 03:49:57;;;;;;;;;;;;;;;;;;5112535;28;19924;-71
2023/04/13 03:52:24;;;;;;;;;;;;;;;;;;5112552;28;20018;-71
2023/04/13 03:54:51;;;;;;;;;;;;;;;;;;5112680;28;19923;-72
2023/04/13 03:57:18;;;;;;;;;;;;;;;;;;5117782;27;19924;-71
2023/04/13 03:59:45;;;;;;;;;;;;;;;;;;5137128;27;19965;-71
2023/04/13 04:02:12;;;;;;;;;;;;;;;;;;5137128;27;19930;-71
2023/04/13 04:04:38;;;;;;;;;;;;;;;;;;5136982;27;19923;-72
2023/04/13 04:07:06;;;;;;;;;;;;;;;;;;5136653;27;19930;-72
2023/04/13 04:09:33;;;;;;;;;;;;;;;;;;5136584;27;19924;-71
2023/04/13 04:12:00;;;;;;;;;;;;;;;;;;5136684;27;19967;-71
2023/04/13 04:14:27;;;;;;;;;;;;;;;;;;5132277;27;20014;-71
2023/04/13 04:16:54;;;;;;;;;;;;;;;;;;5115473;28;19924;-72
2023/04/13 04:19:21;;;;;;;;;;;;;;;;;;5115533;28;19924;-71
2023/04/13 04:21:48;;;;;;;;;;;;;;;;;;5115605;28;19923;-72
2023/04/13 04:24:19;;;;;;;;;;;;;;;;;;5115750;28;20338;-72
2023/04/13 04:26:49;;;;;;;;;;;;;;;;;;5115690;28;20305;-72
2023/04/13 04:29:16;;;;;;;;;;;;;;;;;;5115275;28;19931;-72
2023/04/13 04:31:43;;;;;;;;;;;;;;;;;;5121968;27;19945;-71
2023/04/13 04:34:10;;;;;;;;;;;;;;;;;;5135704;27;19931;-71
2023/04/13 04:36:40;;;;;;;;;;;;;;;;;;5136319;27;19927;-71
2023/04/13 04:39:08;;;;;;;;;;;;;;;;;;5135420;27;19930;-72
2023/04/13 04:41:36;;;;;;;;;;;;;;;;;;5135661;27;20382;-70
2023/04/13 04:44:03;;;;;;;;;;;;;;;;;;5136179;27;19923;-71
2023/04/13 04:46:30;;;;;;;;;;;;;;;;;;5135446;27;20373;-72
2023/04/13 04:48:59;;;;;;;;;;;;;;;;;;5127341;27;20393;-71
2023/04/13 04:51:26;;;;;;;;;;;;;;;;;;5114926;28;20665;-71
2023/04/13 04:53:53;;;;;;;;;;;;;;;;;;5114675;28;20352;-71
2023/04/13 04:56:20;;;;;;;;;;;;;;;;;;5114906;28;20420;-70
2023/04/13 04:58:47;;;;;;;;;;;;;;;;;;5114648;28;20499;-71
2023/04/13 05:01:16;;;;;;;;;;;;;;;;;;5114756;28;20469;-70
2023/04/13 05:03:43;;;;;;;;;;;;;;;;;;5114973;28;19977;-71
2023/04/13 05:06:11;;;;;;;;;;;;;;;;;;5115482;27;19923;-71
2023/04/13 05:08:38;;;;;;;;;;;;;;;;;;5114602;28;19974;-71
2023/04/13 05:11:05;;;;;;;;;;;;;;;;;;5115080;28;20386;-71
2023/04/13 05:13:32;;;;;;;;;;;;;;;;;;5122224;27;21127;-71
2023/04/13 05:15:59;;;;;;;;;;;;;;;;;;5117735;27;20015;-71
2023/04/13 05:18:26;;;;;;;;;;;;;;;;;;5115035;28;20310;-71
2023/04/13 05:20:53;;;;;;;;;;;;;;;;;;5114929;28;19971;-70
2023/04/13 05:23:20;;;;;;;;;;;;;;;;;;5114614;28;20014;-71
2023/04/13 05:25:47;;;;;;;;;;;;;;;;;;5114317;28;19998;-70
2023/04/13 05:28:14;;;;;;;;;;;;;;;;;;5114094;28;20057;-72
2023/04/13 05:30:41;;;;;;;;;;;;;;;;;;5113978;28;19924;-71
2023/04/13 05:33:08;;;;;;;;;;;;;;;;;;5114030;28;19931;-70
2023/04/13 05:35:36;;;;;;;;;;;;;;;;;;5114722;28;20457;-70
2023/04/13 05:38:03;;;;;;;;;;;;;;;;;;5133405;27;19923;-71
2023/04/13 05:40:32;;;;;;;;;;;;;;;;;;5134373;27;19930;-71
2023/04/13 05:42:59;;;;;;;;;;;;;;;;;;5134698;27;19976;-71
2023/04/13 05:45:27;;;;;;;;;;;;;;;;;;5134284;27;19924;-71
2023/04/13 05:47:54;;;;;;;;;;;;;;;;;;5134596;27;19923;-71
2023/04/13 05:50:21;;;;;;;;;;;;;;;;;;5134339;27;20010;-71
2023/04/13 05:52:48;;;;;;;;;;;;;;;;;;5133819;27;20467;-71
2023/04/13 05:55:15;;;;;;;;;;;;;;;;;;5134155;27;19949;-72
2023/04/13 05:57:42;;;;;;;;;;;;;;;;;;5133505;27;19976;-72
2023/04/13 06:00:09;;;;;;;;;;;;;;;;;;5134045;27;19935;-71
2023/04/13 06:02:38;;;;;;;;;;;;;;;;;;5134860;27;19923;-71
2023/04/13 06:05:06;;;;;;;;;;;;;;;;;;5134415;27;19923;-70
2023/04/13 06:07:34;;;;;;;;;;;;;;;;;;5134435;27;19924;-72
2023/04/13 06:10:01;;;;;;;;;;;;;;;;;;5133733;27;20412;-71
2023/04/13 06:12:28;;;;;;;;;;;;;;;;;;5133861;27;19946;-71
2023/04/13 06:14:56;;;;;;;;;;;;;;;;;;5125300;27;19923;-72
2023/04/13 06:17:23;;;;;;;;;;;;;;;;;;5133588;27;19930;-72
2023/04/13 06:19:50;;;;;;;;;;;;;;;;;;5132793;27;19923;-72
2023/04/13 06:22:17;;;;;;;;;;;;;;;;;;5133292;27;19974;-71
2023/04/13 06:24:44;;;;;;;;;;;;;;;;;;5133949;27;20014;-72
2023/04/13 06:27:11;;;;;;;;;;;;;;;;;;5133623;27;19923;-71
2023/04/13 06:29:39;;;;;;;;;;;;;;;;;;5134215;27;19969;-71
2023/04/13 06:32:06;;;;;;;;;;;;;;;;;;5114838;27;19923;-73
2023/04/13 06:34:34;;;;;;;;;;;;;;;;;;5113683;28;19930;-72
2023/04/13 06:37:01;;;;;;;;;;;;;;;;;;5113122;28;19984;-71
2023/04/13 06:39:28;;;;;;;;;;;;;;;;;;5113172;28;19931;-71
2023/04/13 06:41:56;;;;;;;;;;;;;;;;;;5113014;28;20032;-71
2023/04/13 06:44:23;;;;;;;;;;;;;;;;;;5112872;28;19924;-71
2023/04/13 06:46:50;;;;;;;;;;;;;;;;;;5112766;28;19930;-71
2023/04/13 06:49:17;;;;;;;;;;;;;;;;;;5132512;27;19923;-71
2023/04/13 06:51:44;;;;;;;;;;;;;;;;;;5133095;27;19930;-72
2023/04/13 06:54:11;;;;;;;;;;;;;;;;;;5133068;27;19923;-72
2023/04/13 06:56:38;;;;;;;;;;;;;;;;;;5133310;27;19928;-71
2023/04/13 06:59:05;;;;;;;;;;;;;;;;;;5133410;28;20010;-71
2023/04/13 07:01:32;;;;;;;;;;;;;;;;;;5133782;28;19923;-73
2023/04/13 07:03:58;;;;;;;;;;;;;;;;;;5132728;28;19936;-72
2023/04/13 07:06:26;;;;;;;;;;;;;;;;;;5112921;28;20030;-73
2023/04/13 07:08:53;;;;;;;;;;;;;;;;;;5112470;28;19967;-71
2023/04/13 07:11:20;;;;;;;;;;;;;;;;;;5120517;28;20559;-72
2023/04/13 07:13:47;;;;;;;;;;;;;;;;;;5125503;28;19924;-72
2023/04/13 07:16:14;;;;;;;;;;;;;;;;;;5112665;28;19975;-71
2023/04/13 07:18:41;;;;;;;;;;;;;;;;;;5112589;28;19924;-71
2023/04/13 07:21:08;;;;;;;;;;;;;;;;;;5113565;28;20451;-71
2023/04/13 07:23:35;;;;;;;;;;;;;;;;;;5133048;28;19945;-71
2023/04/13 07:26:02;;;;;;;;;;;;;;;;;;5133380;28;19924;-71
2023/04/13 07:28:29;;;;;;;;;;;;;;;;;;5133252;28;20018;-71
2023/04/13 07:30:56;;;;;;;;;;;;;;;;;;5134993;27;19924;-71
2023/04/13 07:33:23;;;;;;;;;;;;;;;;;;5136899;27;20344;-72
2023/04/13 07:35:53;;;;;;;;;;;;;;;;;;5137580;27;20313;-71
2023/04/13 07:38:21;;;;;;;;;;;;;;;;;;5133666;27;19950;-72
2023/04/13 07:40:48;;;;;;;;;;;;;;;;;;5116900;28;19998;-72
2023/04/13 07:43:15;;;;;;;;;;;;;;;;;;5116792;28;19927;-72
2023/04/13 07:45:42;;;;;;;;;;;;;;;;;;5116369;28;20381;-71
2023/04/13 07:48:09;;;;;;;;;;;;;;;;;;5116511;28;19959;-72
2023/04/13 07:50:36;;;;;;;;;;;;;;;;;;5116010;28;19959;-69
2023/04/13 07:53:03;;;;;;;;;;;;;;;;;;5116269;28;19930;-68
2023/04/13 07:55:30;;;;;;;;;;;;;;;;;;5117052;27;20010;-72
2023/04/13 07:57:58;;;;;;;;;;;;;;;;;;5116271;28;20019;-72
2023/04/13 08:00:25;;;;;;;;;;;;;;;;;;5116394;28;19963;-71
2023/04/13 08:02:52;;;;;;;;;;;;;;;;;;5116265;28;20023;-72
2023/04/13 08:05:19;;;;;;;;;;;;;;;;;;5116207;28;20026;-72
2023/04/13 08:07:47;;;;;;;;;;;;;;;;;;5116040;28;19931;-72
2023/04/13 08:10:15;;;;;;;;;;;;;;;;;;5124156;27;19935;-73
2023/04/13 08:12:42;;;;;;;;;;;;;;;;;;5130026;27;19967;-72
2023/04/13 08:15:09;;;;;;;;;;;;;;;;;;5154457;27;19927;-72
2023/04/13 08:17:36;;;;;;;;;;;;;;;;;;5157248;27;20021;-72
2023/04/13 08:20:06;;;;;;;;;;;;;;;;;;5156603;27;19923;-71
2023/04/13 08:22:33;;;;;;;;;;;;;;;;;;5156914;27;19923;-71
2023/04/13 08:25:00;;;;;;;;;;;;;;;;;;5157041;27;19949;-72
2023/04/13 08:27:27;;;;;;;;;;;;;;;;;;5157364;27;19975;-72
2023/04/13 08:29:54;;;;;;;;;;;;;;;;;;5147280;27;19930;-71
2023/04/13 08:32:21;;;;;;;;;;;;;;;;;;5135272;27;19931;-71
2023/04/13 08:34:48;;;;;;;;;;;;;;;;;;5135850;27;19930;-72
2023/04/13 08:37:15;;;;;;;;;;;;;;;;;;5136244;27;19927;-71
2023/04/13 08:39:42;;;;;;;;;;;;;;;;;;5136008;27;19976;-71
2023/04/13 08:42:09;;;;;;;;;;;;;;;;;;5135333;27;19923;-72
2023/04/13 08:44:36;;;;;;;;;;;;;;;;;;5135474;27;20275;-72
2023/04/13 08:47:03;;;;;;;;;;;;;;;;;;5125979;27;19923;-71
2023/04/13 08:49:30;;;;;;;;;;;;;;;;;;5115198;28;19963;-68
2023/04/13 08:51:58;;;;;;;;;;;;;;;;;;5114621;28;19927;-68
2023/04/13 08:54:27;;;;;;;;;;;;;;;;;;5114732;28;19971;-68
2023/04/13 08:56:54;;;;;;;;;;;;;;;;;;5114214;28;19924;-71
2023/04/13 08:59:21;;;;;;;;;;;;;;;;;;5114237;28;20019;-71
2023/04/13 09:01:48;;;;;;;;;;;;;;;;;;5114566;28;20401;-73
2023/04/13 09:04:16;;;;;;;;;;;;;;;;;;5126336;27;19930;-72
2023/04/13 09:06:43;;;;;;;;;;;;;;;;;;5135390;27;20515;-73
2023/04/13 09:09:12;;;;;;;;;;;;;;;;;;5135401;27;19924;-71
2023/04/13 09:11:40;;;;;;;;;;;;;;;;;;5135246;27;20010;-72
2023/04/13 09:14:07;;;;;;;;;;;;;;;;;;5116091;27;19924;-72
2023/04/13 09:16:34;;;;;;;;;;;;;;;;;;5114962;28;19968;-72
2023/04/13 09:19:02;;;;;;;;;;;;;;;;;;5114968;28;19977;-72
2023/04/13 09:21:30;;;;;;;;;;;;;;;;;;5127067;27;19992;-71
2023/04/13 09:23:57;;;;;;;;;;;;;;;;;;5135229;27;19930;-72
2023/04/13 09:26:24;;;;;;;;;;;;;;;;;;5134906;27;20297;-71
2023/04/13 09:28:51;;;;;;;;;;;;;;;;;;5134579;27;19969;-72
2023/04/13 09:31:19;;;;;;;;;;;;;;;;;;5134692;27;19929;-70
2023/04/13 09:33:46;;;;;;;;;;;;;;;;;;5135169;27;19923;-72
2023/04/13 09:36:13;;;;;;;;;;;;;;;;;;5135030;27;19927;-71
2023/04/13 09:38:40;;;;;;;;;;;;;;;;;;5120150;27;20010;-70
2023/04/13 09:41:07;;;;;;;;;;;;;;;;;;5113676;28;19924;-71
2023/04/13 09:43:34;;;;;;;;;;;;;;;;;;5114181;28;19924;-72
2023/04/13 09:46:01;;;;;;;;;;;;;;;;;;5113992;28;20293;-71
2023/04/13 09:48:29;;;;;;;;;;;;;;;;;;5113884;28;20397;-72
2023/04/13 09:50:56;;;;;;;;;;;;;;;;;;5113804;28;19924;-71
2023/04/13 09:53:23;;;;;;;;;;;;;;;;;;5113451;28;19974;-72
2023/04/13 09:55:50;;;;;;;;;;;;;;;;;;5129359;27;19934;-72
2023/04/13 09:58:17;;;;;;;;;;;;;;;;;;5134371;27;19929;-72
2023/04/13 10:00:45;;;;;;;;;;;;;;;;;;5133442;27;20021;-72
2023/04/13 10:03:12;;;;;;;;;;;;;;;;;;5133983;27;20340;-72
2023/04/13 10:05:39;;;;;;;;;;;;;;;;;;5134010;27;20006;-71
2023/04/13 10:08:06;;;;;;;;;;;;;;;;;;5133478;27;20020;-72
2023/04/13 10:10:33;;;;;;;;;;;;;;;;;;5133964;27;19923;-72
2023/04/13 10:13:00;;;;;;;;;;;;;;;;;;5134534;27;19923;-72
2023/04/13 10:15:27;;;;;;;;;;;;;;;;;;5155202;27;19923;-72
2023/04/13 10:17:54;;;;;;;;;;;;;;;;;;5154460;27;20009;-72
2023/04/13 10:20:21;;;;;;;;;;;;;;;;;;5154962;27;19933;-72
2023/04/13 10:22:48;;;;;;;;;;;;;;;;;;5153522;27;20022;-72
2023/04/13 10:25:15;;;;;;;;;;;;;;;;;;5154031;27;19923;-72
2023/04/13 10:27:42;;;;;;;;;;;;;;;;;;5153295;27;19923;-71
2023/04/13 10:30:09;;;;;;;;;;;;;;;;;;5115931;27;20367;-72
2023/04/13 10:32:36;;;;;;;;;;;;;;;;;;5112973;28;19923;-71
2023/04/13 10:35:04;;;;;;;;;;;;;;;;;;5113012;28;19924;-72
2023/04/13 10:37:31;;;;;;;;;;;;;;;;;;5113159;28;19934;-72
2023/04/13 10:39:58;;;;;;;;;;;;;;;;;;5112987;28;19923;-72
2023/04/13 10:42:25;;;;;;;;;;;;;;;;;;5112747;28;20393;-72
2023/04/13 10:44:52;;;;;;;;;;;;;;;;;;5113328;28;19931;-72
2023/04/13 10:47:20;;;;;;;;;;;;;;;;;;5113762;28;19930;-71
2023/04/13 10:49:47;;;;;;;;;;;;;;;;;;5113096;28;20296;-72
2023/04/13 10:52:14;;;;;;;;;;;;;;;;;;5113415;28;19936;-72
2023/04/13 10:54:41;;;;;;;;;;;;;;;;;;5112430;28;20014;-71
2023/04/13 10:57:08;;;;;;;;;;;;;;;;;;5112780;28;19930;-71
2023/04/13 10:59:35;;;;;;;;;;;;;;;;;;5112848;28;19924;-72
2023/04/13 11:02:02;;;;;;;;;;;;;;;;;;5112884;28;19931;-71
2023/04/13 11:04:30;;;;;;;;;;;;;;;;;;5113087;28;19923;-72
2023/04/13 11:06:58;;;;;;;;;;;;;;;;;;5123955;28;19930;-72
2023/04/13 11:09:24;;;;;;;;;;;;;;;;;;5132896;28;19966;-71
2023/04/13 11:11:52;;;;;;;;;;;;;;;;;;5125437;28;19928;-72
2023/04/13 11:14:18;;;;;;;;;;;;;;;;;;5112922;28;19932;-71
2023/04/13 11:16:46;;;;;;;;;;;;;;;;;;5112366;28;19924;-71
2023/04/13 11:19:13;;;;;;;;;;;;;;;;;;5114579;28;20143;-71
2023/04/13 11:21:39;;;;;;;;;;;;;;;;;;5132989;28;19931;-72
2023/04/13 11:24:06;;;;;;;;;;;;;;;;;;5133130;28;19924;-72
2023/04/13 11:26:34;;;;;;;;;;;;;;;;;;5132998;28;19923;-71
2023/04/13 11:29:00;;;;;;;;;;;;;;;;;;5133266;28;19923;-72
2023/04/13 11:31:27;;;;;;;;;;;;;;;;;;5133007;28;20458;-72
2023/04/13 11:33:54;;;;;;;;;;;;;;;;;;5132765;28;20446;-72
2023/04/13 11:36:22;;;;;;;;;;;;;;;;;;5129486;28;20375;-71
2023/04/13 11:38:51;;;;;;;;;;;;;;;;;;5112635;28;19978;-71
2023/04/13 11:41:17;;;;;;;;;;;;;;;;;;5116829;28;19997;-72
2023/04/13 11:43:47;;;;;;;;;;;;;;;;;;5133076;28;19999;-71
2023/04/13 11:46:14;;;;;;;;;;;;;;;;;;5132930;28;20422;-72
2023/04/13 11:48:42;;;;;;;;;;;;;;;;;;5133347;28;19931;-72
2023/04/13 11:51:10;;;;;;;;;;;;;;;;;;5132808;28;19931;-71
2023/04/13 11:53:37;;;;;;;;;;;;;;;;;;5131608;28;19934;-71
2023/04/13 11:56:04;;;;;;;;;;;;;;;;;;5133053;28;19992;-71
2023/04/13 11:58:31;;;;;;;;;;;;;;;;;;5132935;28;20345;-70
2023/04/13 12:00:58;;;;;;;;;;;;;;;;;;5132509;28;20292;-71
2023/04/13 12:03:25;;;;;;;;;;;;;;;;;;5133087;28;20288;-71
2023/04/13 12:05:52;;;;;;;;;;;;;;;;;;5132844;28;20284;-71
2023/04/13 12:08:19;;;;;;;;;;;;;;;;;;5132311;28;19977;-72
2023/04/13 12:10:46;;;;;;;;;;;;;;;;;;5132097;28;19968;-72
2023/04/13 12:13:13;;;;;;;;;;;;;;;;;;5112395;28;19931;-75
2023/04/13 12:15:40;;;;;;;;;;;;;;;;;;5112074;28;19931;-73
2023/04/13 12:18:07;;;;;;;;;;;;;;;;;;5113548;28;19982;-72
2023/04/13 12:20:34;;;;;;;;;;;;;;;;;;5115313;28;20441;-72
2023/04/13 12:23:02;;;;;;;;;;;;;;;;;;5115768;28;20385;-71
2023/04/13 12:25:29;;;;;;;;;;;;;;;;;;5115737;28;19924;-72
2023/04/13 12:27:56;;;;;;;;;;;;;;;;;;5123653;27;19927;-73
2023/04/13 12:30:23;;;;;;;;;;;;;;;;;;5135718;27;20301;-72
2023/04/13 12:32:50;;;;;;;;;;;;;;;;;;5136107;27;20015;-73
2023/04/13 12:35:18;;;;;;;;;;;;;;;;;;5136074;27;19923;-72
2023/04/13 12:37:45;;;;;;;;;;;;;;;;;;5135381;27;19949;-72
2023/04/13 12:40:12;;;;;;;;;;;;;;;;;;5135498;27;19930;-72
2023/04/13 12:42:39;;;;;;;;;;;;;;;;;;5135920;27;19923;-72
2023/04/13 12:45:06;;;;;;;;;;;;;;;;;;5135173;27;20290;-73
2023/04/13 12:47:33;;;;;;;;;;;;;;;;;;5135718;27;19970;-72
2023/04/13 12:50:00;;;;;;;;;;;;;;;;;;5135632;27;19929;-72
2023/04/13 12:52:28;;;;;;;;;;;;;;;;;;5135685;27;19931;-72
2023/04/13 12:54:55;;;;;;;;;;;;;;;;;;5134496;27;19927;-72
2023/04/13 12:57:22;;;;;;;;;;;;;;;;;;5133889;27;20408;-72
2023/04/13 12:59:49;;;;;;;;;;;;;;;;;;5134497;27;20345;-72
2023/04/13 13:02:16;;;;;;;;;;;;;;;;;;5134053;27;20293;-72
2023/04/13 13:04:43;;;;;;;;;;;;;;;;;;5134883;27;20361;-72
2023/04/13 13:07:10;;;;;;;;;;;;;;;;;;5135171;27;19966;-71
2023/04/13 13:09:37;;;;;;;;;;;;;;;;;;5134981;27;20297;-72
2023/04/13 13:12:04;;;;;;;;;;;;;;;;;;5124607;27;19970;-72
2023/04/13 13:14:31;;;;;;;;;;;;;;;;;;5114357;28;19959;-72
2023/04/13 13:16:59;;;;;;;;;;;;;;;;;;5113959;28;19931;-73
2023/04/13 13:19:26;;;;;;;;;;;;;;;;;;5126146;27;19962;-72
2023/04/13 13:21:53;;;;;;;;;;;;;;;;;;5134854;27;19924;-73
2023/04/13 13:24:20;;;;;;;;;;;;;;;;;;5134583;27;19923;-72
2023/04/13 13:26:47;;;;;;;;;;;;;;;;;;5134706;27;20015;-72
2023/04/13 13:29:16;;;;;;;;;;;;;;;;;;5134608;27;19970;-72
2023/04/13 13:31:43;;;;;;;;;;;;;;;;;;5134518;27;19923;-71
2023/04/13 13:34:10;;;;;;;;;;;;;;;;;;5134531;27;19943;-71
2023/04/13 13:36:37;;;;;;;;;;;;;;;;;;5133662;27;19923;-73
2023/04/13 13:39:04;;;;;;;;;;;;;;;;;;5133876;27;19931;-71
2023/04/13 13:41:31;;;;;;;;;;;;;;;;;;5134375;27;19924;-71
2023/04/13 13:43:58;;;;;;;;;;;;;;;;;;5134762;27;19923;-72
2023/04/13 13:46:25;;;;;;;;;;;;;;;;;;5135034;27;20006;-71
2023/04/13 13:48:52;;;;;;;;;;;;;;;;;;5135231;27;20425;-73
2023/04/13 13:51:19;;;;;;;;;;;;;;;;;;5134857;27;20453;-72
2023/04/13 13:53:46;;;;;;;;;;;;;;;;;;5119111;27;19923;-72
2023/04/13 13:56:13;;;;;;;;;;;;;;;;;;5113935;28;19928;-71
2023/04/13 13:58:40;;;;;;;;;;;;;;;;;;5114050;28;19966;-71
2023/04/13 14:01:07;;;;;;;;;;;;;;;;;;5114039;28;20332;-72
2023/04/13 14:03:35;;;;;;;;;;;;;;;;;;5127875;27;20396;-72
2023/04/13 14:06:01;;;;;;;;;;;;;;;;;;5134463;27;19924;-72
2023/04/13 14:08:28;;;;;;;;;;;;;;;;;;5134147;27;19923;-73
2023/04/13 14:10:55;;;;;;;;;;;;;;;;;;5132745;27;20420;-72
2023/04/13 14:13:23;;;;;;;;;;;;;;;;;;5113388;28;20283;-72
2023/04/13 14:15:50;;;;;;;;;;;;;;;;;;5113804;28;19923;-73
2023/04/13 14:18:17;;;;;;;;;;;;;;;;;;5113424;28;20011;-72
2023/04/13 14:20:44;;;;;;;;;;;;;;;;;;5113308;28;20002;-72
2023/04/13 14:23:11;;;;;;;;;;;;;;;;;;5113307;28;19967;-72
2023/04/13 14:25:39;;;;;;;;;;;;;;;;;;5113667;28;20379;-72
2023/04/13 14:28:07;;;;;;;;;;;;;;;;;;5131530;27;19930;-72
2023/04/13 14:30:34;;;;;;;;;;;;;;;;;;5133934;27;19999;-73
2023/04/13 14:33:02;;;;;;;;;;;;;;;;;;5134127;27;20294;-73
2023/04/13 14:35:29;;;;;;;;;;;;;;;;;;5134307;27;19976;-72
2023/04/13 14:37:56;;;;;;;;;;;;;;;;;;5133950;27;20282;-71
2023/04/13 14:40:23;;;;;;;;;;;;;;;;;;5133509;27;20405;-72
2023/04/13 14:42:51;;;;;;;;;;;;;;;;;;5133885;27;19924;-72
2023/04/13 14:45:18;;;;;;;;;;;;;;;;;;5132387;27;19934;-73
2023/04/13 14:47:45;;;;;;;;;;;;;;;;;;5134129;27;19923;-74
2023/04/13 14:50:13;;;;;;;;;;;;;;;;;;5134239;27;19933;-72
2023/04/13 14:52:39;;;;;;;;;;;;;;;;;;5134556;27;20302;-72
2023/04/13 14:55:07;;;;;;;;;;;;;;;;;;5135162;27;19923;-72
2023/04/13 14:57:34;;;;;;;;;;;;;;;;;;5134561;27;19929;-71
2023/04/13 15:00:02;;;;;;;;;;;;;;;;;;5132835;28;19977;-72
2023/04/13 15:02:30;;;;;;;;;;;;;;;;;;5133262;27;20318;-74
2023/04/13 15:04:57;;;;;;;;;;;;;;;;;;5133229;28;20293;-73
2023/04/13 15:07:28;;;;;;;;;;;;;;;;;;5132928;28;20386;-73
2023/04/13 15:09:56;;;;;;;;;;;;;;;;;;5133031;28;19923;-72
2023/04/13 15:12:23;;;;;;;;;;;;;;;;;;5119863;28;19927;-70
2023/04/13 15:14:50;;;;;;;;;;;;;;;;;;5112717;28;19927;-73
2023/04/13 15:17:17;;;;;;;;;;;;;;;;;;5113335;28;20421;-70
2023/04/13 15:19:44;;;;;;;;;;;;;;;;;;5112449;28;19930;-70
2023/04/13 15:22:11;;;;;;;;;;;;;;;;;;5112605;28;19930;-74
2023/04/13 15:24:38;;;;;;;;;;;;;;;;;;5112458;28;20015;-72
2023/04/13 15:27:05;;;;;;;;;;;;;;;;;;5112402;28;20006;-72
2023/04/13 15:29:32;;;;;;;;;;;;;;;;;;5112359;28;20022;-71
2023/04/13 15:32:00;;;;;;;;;;;;;;;;;;5112440;28;20007;-72
2023/04/13 15:34:27;;;;;;;;;;;;;;;;;;5116875;28;19923;-72
2023/04/13 15:36:55;;;;;;;;;;;;;;;;;;5133253;28;19927;-72
2023/04/13 15:39:22;;;;;;;;;;;;;;;;;;5133159;28;19946;-72
2023/04/13 15:41:51;;;;;;;;;;;;;;;;;;5133592;28;19924;-75
2023/04/13 15:44:18;;;;;;;;;;;;;;;;;;5133035;28;19949;-73
2023/04/13 15:46:46;;;;;;;;;;;;;;;;;;5133447;28;20002;-73
2023/04/13 15:49:13;;;;;;;;;;;;;;;;;;5132992;28;20390;-74
2023/04/13 15:51:40;;;;;;;;;;;;;;;;;;5131870;28;20461;-72
2023/04/13 15:54:07;;;;;;;;;;;;;;;;;;5136520;27;19975;-73
2023/04/13 15:56:34;;;;;;;;;;;;;;;;;;5137500;27;19967;-71
2023/04/13 15:59:01;;;;;;;;;;;;;;;;;;5136920;27;19923;-72
2023/04/13 16:01:28;;;;;;;;;;;;;;;;;;5137052;27;19931;-73
2023/04/13 16:03:56;;;;;;;;;;;;;;;;;;5136786;27;20015;-73
2023/04/13 16:06:22;;;;;;;;;;;;;;;;;;5136822;27;19923;-73
2023/04/13 16:08:49;;;;;;;;;;;;;;;;;;5135876;27;20305;-73
2023/04/13 16:11:19;;;;;;;;;;;;;;;;;;5133924;27;19974;-74
2023/04/13 16:13:47;;;;;;;;;;;;;;;;;;5116701;28;19976;-73
2023/04/13 16:16:14;;;;;;;;;;;;;;;;;;5116318;28;19973;-73
2023/04/13 16:18:41;;;;;;;;;;;;;;;;;;5115888;28;19930;-73
2023/04/13 16:21:09;;;;;;;;;;;;;;;;;;5115482;28;20006;-73
2023/04/13 16:23:37;;;;;;;;;;;;;;;;;;5114909;28;19924;-73
2023/04/13 16:26:03;;;;;;;;;;;;;;;;;;5125222;27;20019;-73
2023/04/13 16:28:30;;;;;;;;;;;;;;;;;;5135917;27;19930;-73
2023/04/13 16:30:57;;;;;;;;;;;;;;;;;;5136084;27;19923;-73
2023/04/13 16:33:24;;;;;;;;;;;;;;;;;;5136174;27;19946;-73
2023/04/13 16:35:51;;;;;;;;;;;;;;;;;;5136128;27;20292;-72
2023/04/13 16:38:18;;;;;;;;;;;;;;;;;;5135325;27;20374;-72
2023/04/13 16:40:45;;;;;;;;;;;;;;;;;;5135759;27;19924;-73
2023/04/13 16:43:12;;;;;;;;;;;;;;;;;;5135023;27;19923;-73
2023/04/13 16:45:40;;;;;;;;;;;;;;;;;;5135907;27;20312;-73